Terminal Aerodrome Forecast
Issued by NWS Green Bay, WI

Home | Current Version | Previous Version | Text Only | Print | Product List | Glossary Off
Versions: 1 2 3 4 5 6 7 8 9 10 11 12 13 14 15 16 17 18 19 20 21

000
FTUS43 KGRB 192326
TAFGRB
TAF
KGRB 192326Z 2000/2024 04020G26KT 4SM -FZDZ BR OVC007
      TEMPO 2000/2004 1SM -FZRAPL BR BKN004
     FM200400 03013G19KT 3SM -FZDZ BR OVC004
     FM200800 03007KT 2SM -FZDZ BR OVC003
     FM201700 29004KT 6SM -RA BR OVC005
     FM202100 29006KT 6SM -RA OVC010=

USA.gov is the U.S. government's official web portal to all federal, state and local government web resources and services.